createdAt,value
2022-09-16T00:00:47.666Z,46.10
2022-09-16T00:03:16.427Z,46.95
2022-09-16T00:05:44.012Z,46.53
2022-09-16T00:08:11.572Z,46.97
2022-09-16T00:10:38.683Z,46.45
2022-09-16T00:13:07.401Z,46.65
2022-09-16T00:15:34.198Z,46.63
2022-09-16T00:18:00.982Z,46.92
2022-09-16T00:20:27.955Z,46.38
2022-09-16T00:22:54.851Z,47.00
2022-09-16T00:25:21.651Z,46.45
2022-09-16T00:27:49.229Z,46.92
2022-09-16T00:30:17.615Z,46.63
2022-09-16T00:32:44.453Z,46.63
2022-09-16T00:35:11.274Z,47.75
2022-09-16T00:37:38.154Z,46.88
2022-09-16T00:40:05.886Z,47.10
2022-09-16T00:42:37.833Z,47.13
2022-09-16T00:45:12.008Z,47.05
2022-09-16T00:47:43.324Z,47.88
2022-09-16T00:50:15.562Z,46.90
2022-09-16T00:52:43.209Z,46.30
2022-09-16T00:55:13.849Z,46.70
2022-09-16T00:57:41.969Z,46.87
2022-09-16T01:00:12.220Z,46.75
2022-09-16T01:05:12.464Z,46.63
2022-09-16T01:07:42.480Z,46.58
2022-09-16T01:10:09.939Z,46.97
2022-09-16T01:12:37.530Z,46.65
2022-09-16T01:15:06.298Z,46.95
2022-09-16T01:18:02.232Z,46.53
2022-09-16T01:20:56.085Z,47.88
2022-09-16T01:23:53.897Z,47.17
2022-09-16T01:26:53.241Z,47.20
2022-09-16T01:29:47.422Z,46.88
2022-09-16T01:32:21.936Z,47.15
2022-09-16T01:34:57.409Z,46.80
2022-09-16T01:37:34.513Z,47.47
2022-09-16T01:40:09.006Z,46.28
2022-09-16T01:42:46.869Z,46.72
2022-09-16T01:45:20.577Z,46.83
2022-09-16T01:47:56.791Z,46.70
2022-09-16T01:50:30.675Z,47.63
2022-09-16T01:53:03.824Z,46.92
2022-09-16T01:55:35.529Z,47.20
2022-09-16T01:58:09.303Z,47.88
2022-09-16T02:00:39.402Z,47.20
2022-09-16T02:03:10.732Z,47.40
2022-09-16T02:05:42.832Z,47.42
2022-09-16T02:08:13.492Z,47.28
2022-09-16T02:10:47.110Z,47.45
2022-09-16T02:13:20.572Z,47.28
2022-09-16T02:15:49.915Z,46.95
2022-09-16T02:18:24.090Z,46.97
2022-09-16T02:20:53.533Z,46.72
2022-09-16T02:23:25.365Z,47.88
2022-09-16T02:25:54.807Z,47.17
2022-09-16T02:28:27.316Z,47.30
2022-09-16T02:30:58.554Z,47.38
2022-09-16T02:33:33.647Z,46.65
2022-09-16T02:36:04.302Z,46.45
2022-09-16T02:38:35.624Z,46.93
2022-09-16T02:41:27.652Z,47.08
2022-09-16T02:43:55.017Z,46.45
2022-09-16T02:46:31.789Z,47.05
2022-09-16T02:49:09.423Z,46.65
2022-09-16T02:51:45.102Z,47.05
2022-09-16T02:54:21.645Z,47.15
2022-09-16T02:59:42.336Z,46.28
2022-09-16T03:02:09.261Z,46.08
2022-09-16T03:04:37.592Z,45.83
2022-09-16T03:07:06.745Z,46.83
2022-09-16T03:09:36.105Z,46.53
2022-09-16T03:12:30.561Z,46.45
2022-09-16T03:15:25.352Z,46.15
2022-09-16T03:18:20.075Z,46.13
2022-09-16T03:20:54.937Z,46.63
2022-09-16T03:23:34.302Z,46.47
2022-09-16T03:26:11.352Z,45.97
2022-09-16T03:28:47.614Z,46.20
2022-09-16T03:31:21.876Z,46.05
2022-09-16T03:33:56.033Z,46.35
2022-09-16T03:36:34.740Z,45.67
2022-09-16T03:39:03.332Z,45.75
2022-09-16T03:41:32.952Z,46.58
2022-09-16T03:44:03.947Z,45.70
2022-09-16T03:46:31.828Z,45.63
2022-09-16T03:48:59.117Z,45.65
2022-09-16T03:51:27.735Z,45.35
2022-09-16T03:53:55.212Z,45.58
2022-09-16T03:56:23.595Z,45.53
2022-09-16T03:58:50.505Z,46.20
2022-09-16T04:01:17.777Z,45.58
2022-09-16T04:03:44.699Z,45.90
2022-09-16T04:06:11.601Z,45.33
2022-09-16T04:08:39.902Z,45.67
2022-09-16T04:11:07.110Z,46.15
2022-09-16T04:13:36.111Z,45.78
2022-09-16T04:16:04.758Z,45.83
2022-09-16T04:18:32.419Z,45.67
2022-09-16T04:21:00.529Z,45.67
2022-09-16T04:23:28.458Z,46.08
2022-09-16T04:25:57.967Z,46.17
2022-09-16T04:28:25.700Z,46.33
2022-09-16T04:30:52.777Z,46.15
2022-09-16T04:33:20.206Z,45.55
2022-09-16T04:35:47.876Z,45.97
2022-09-16T04:38:14.729Z,45.95
2022-09-16T04:40:41.605Z,45.90
2022-09-16T04:43:10.352Z,45.65
2022-09-16T04:45:37.183Z,46.42
2022-09-16T04:48:04.036Z,46.80
2022-09-16T04:50:30.851Z,47.20
2022-09-16T04:52:58.232Z,46.15
2022-09-16T04:55:25.099Z,45.95
2022-09-16T04:57:52.505Z,45.83
2022-09-16T05:00:20.734Z,46.15
2022-09-16T05:02:48.988Z,45.95
2022-09-16T05:05:17.259Z,45.67
2022-09-16T05:07:44.276Z,45.55
2022-09-16T05:10:11.184Z,45.78
2022-09-16T05:12:38.463Z,45.28
2022-09-16T05:15:06.063Z,46.08
2022-09-16T05:17:50.248Z,45.38
2022-09-16T05:20:18.102Z,45.80
2022-09-16T05:22:45.066Z,45.67
2022-09-16T05:25:12.143Z,46.05
2022-09-16T05:27:39.010Z,46.15
2022-09-16T05:30:06.896Z,45.55
2022-09-16T05:32:35.053Z,45.67
2022-09-16T05:35:01.955Z,45.38
2022-09-16T05:37:28.800Z,45.15
2022-09-16T05:39:55.710Z,45.42
2022-09-16T05:42:22.560Z,45.50
2022-09-16T05:44:49.416Z,45.85
2022-09-16T05:47:16.267Z,45.58
2022-09-16T05:49:44.424Z,46.05
2022-09-16T05:52:11.306Z,46.22
2022-09-16T05:54:38.171Z,45.88
2022-09-16T05:57:07.240Z,46.08
2022-09-16T05:59:34.287Z,45.85
2022-09-16T06:02:01.250Z,46.03
2022-09-16T06:04:28.135Z,45.95
2022-09-16T06:06:56.367Z,45.85
2022-09-16T06:09:24.782Z,45.95
2022-09-16T06:11:57.986Z,46.33
2022-09-16T06:14:28.605Z,46.25
2022-09-16T06:16:55.495Z,46.28
2022-09-16T06:19:22.645Z,46.35
2022-09-16T06:21:49.708Z,46.90
2022-09-16T06:24:19.941Z,46.28
2022-09-16T06:26:49.255Z,46.42
2022-09-16T06:29:16.830Z,46.20
2022-09-16T06:31:43.840Z,46.28
2022-09-16T06:34:14.987Z,46.63
2022-09-16T06:36:44.952Z,46.38
2022-09-16T06:39:13.372Z,46.25
2022-09-16T06:41:41.781Z,46.10
2022-09-16T06:44:08.910Z,46.42
2022-09-16T06:46:35.767Z,45.83
2022-09-16T06:49:05.857Z,46.63
2022-09-16T06:51:34.683Z,46.28
2022-09-16T06:54:03.860Z,46.30
2022-09-16T06:56:30.937Z,46.10
2022-09-16T06:58:59.608Z,46.05
2022-09-16T07:01:28.931Z,46.08
2022-09-16T07:03:58.325Z,46.15
2022-09-16T07:06:52.288Z,46.60
2022-09-16T07:09:16.333Z,45.72
2022-09-16T07:11:43.202Z,45.70
2022-09-16T07:14:11.511Z,46.60
2022-09-16T07:16:38.416Z,46.08
2022-09-16T07:19:05.991Z,46.28
2022-09-16T07:21:33.062Z,45.42
2022-09-16T07:24:01.894Z,45.08
2022-09-16T07:26:31.150Z,45.60
2022-09-16T07:29:00.189Z,45.97
2022-09-16T07:31:30.350Z,45.42
2022-09-16T07:34:03.559Z,45.60
2022-09-16T07:36:34.770Z,45.33
2022-09-16T07:39:03.265Z,45.30
2022-09-16T07:41:33.094Z,44.83
2022-09-16T07:44:00.831Z,45.35
2022-09-16T07:46:30.754Z,46.35
2022-09-16T07:48:59.035Z,47.00
2022-09-16T07:51:27.576Z,46.45
2022-09-16T07:53:55.460Z,46.25
2022-09-16T07:56:25.524Z,46.75
2022-09-16T07:58:54.015Z,45.65
2022-09-16T08:01:21.608Z,46.35
2022-09-16T08:03:50.922Z,46.85
2022-09-16T08:06:19.519Z,46.47
2022-09-16T08:08:46.969Z,46.42
2022-09-16T08:11:15.106Z,46.50
2022-09-16T08:13:43.073Z,46.45
2022-09-16T08:16:13.064Z,46.85
2022-09-16T08:18:40.956Z,47.07
2022-09-16T08:21:11.037Z,47.83
2022-09-16T08:23:38.930Z,46.40
2022-09-16T08:26:10.981Z,47.03
2022-09-16T08:28:57.639Z,46.22
2022-09-16T08:31:26.012Z,46.55
2022-09-16T08:33:52.913Z,46.47
2022-09-16T08:36:22.542Z,46.35
2022-09-16T08:38:51.068Z,46.63
2022-09-16T08:41:31.981Z,47.25
2022-09-16T08:44:07.187Z,46.05
2022-09-16T08:46:40.234Z,46.60
2022-09-16T08:49:17.035Z,45.95
2022-09-16T08:51:46.576Z,46.22
2022-09-16T08:54:23.473Z,45.55
2022-09-16T08:56:50.787Z,45.88
2022-09-16T08:59:24.058Z,45.50
2022-09-16T09:01:58.544Z,46.08
2022-09-16T09:04:26.321Z,45.75
2022-09-16T09:07:08.613Z,45.95
2022-09-16T09:09:49.429Z,45.85
2022-09-16T09:12:25.754Z,46.15
2022-09-16T09:15:07.768Z,46.13
2022-09-16T09:17:48.734Z,46.17
2022-09-16T09:20:26.818Z,46.28
2022-09-16T09:23:15.952Z,46.15
2022-09-16T09:25:53.378Z,46.05
2022-09-16T09:28:50.169Z,45.80
2022-09-16T09:31:25.841Z,45.88
2022-09-16T09:34:02.084Z,45.58
2022-09-16T09:36:45.762Z,45.55
2022-09-16T09:39:28.636Z,45.50
2022-09-16T09:42:03.118Z,45.15
2022-09-16T09:44:41.913Z,45.63
2022-09-16T09:47:12.470Z,45.53
2022-09-16T09:49:43.857Z,45.45
2022-09-16T09:52:16.824Z,45.45
2022-09-16T09:54:50.994Z,45.55
2022-09-16T09:57:25.404Z,45.72
2022-09-16T10:00:01.113Z,45.47
2022-09-16T10:02:28.122Z,46.55
2022-09-16T10:04:55.029Z,46.63
2022-09-16T10:07:24.449Z,46.53
2022-09-16T10:09:56.840Z,47.05
2022-09-16T10:12:29.332Z,47.53
2022-09-16T10:14:56.647Z,46.63
2022-09-16T10:17:23.665Z,46.92
2022-09-16T10:19:52.618Z,47.03
2022-09-16T10:22:23.924Z,47.25
2022-09-16T10:24:56.255Z,46.63
2022-09-16T10:27:26.983Z,46.55
2022-09-16T10:30:11.960Z,46.25
2022-09-16T10:32:47.886Z,46.42
2022-09-16T10:35:21.547Z,46.30
2022-09-16T10:37:52.798Z,46.42
2022-09-16T10:40:23.432Z,46.05
2022-09-16T10:42:52.376Z,45.80
2022-09-16T10:45:25.842Z,45.65
2022-09-16T10:47:55.770Z,45.90
2022-09-16T10:50:23.228Z,45.85
2022-09-16T10:52:50.787Z,46.05
2022-09-16T10:55:25.054Z,46.35
2022-09-16T10:57:52.656Z,45.90
2022-09-16T11:00:21.881Z,46.03
2022-09-16T11:03:31.477Z,45.88
2022-09-16T11:06:11.569Z,45.78
2022-09-16T11:08:52.926Z,46.03
2022-09-16T11:11:37.801Z,46.55
2022-09-16T11:14:15.368Z,46.83
2022-09-16T11:17:12.427Z,46.35
2022-09-16T11:19:54.184Z,46.47
2022-09-16T11:22:31.852Z,46.15
2022-09-16T11:25:38.486Z,45.97
2022-09-16T11:28:32.391Z,46.45
2022-09-16T11:31:09.527Z,46.72
2022-09-16T11:33:45.333Z,47.45
2022-09-16T11:36:25.074Z,47.65
2022-09-16T11:39:05.947Z,48.15
2022-09-16T11:44:47.972Z,48.15
2022-09-16T11:47:40.719Z,48.28
2022-09-16T11:50:21.884Z,47.85
2022-09-16T12:02:04.840Z,48.25
2022-09-16T12:04:38.319Z,50.13
2022-09-16T12:07:13.217Z,50.88
2022-09-16T12:09:49.119Z,50.35
2022-09-16T12:12:18.746Z,49.72
2022-09-16T12:14:50.343Z,49.17
2022-09-16T12:17:21.553Z,49.25
2022-09-16T12:19:52.524Z,48.90
2022-09-16T12:22:24.754Z,48.83
2022-09-16T12:25:00.773Z,48.65
2022-09-16T12:27:44.534Z,48.85
2022-09-16T12:30:17.683Z,48.47
2022-09-16T12:33:00.114Z,48.05
2022-09-16T12:38:04.002Z,48.67
2022-09-16T12:40:42.085Z,47.13
2022-09-16T12:43:42.487Z,47.65
2022-09-16T12:46:42.921Z,47.92
2022-09-16T12:49:42.161Z,47.22
2022-09-16T12:52:22.525Z,48.60
2022-09-16T12:55:19.455Z,48.60
2022-09-16T12:58:01.084Z,48.30
2022-09-16T13:00:32.717Z,48.45
2022-09-16T13:03:06.698Z,48.60
2022-09-16T13:05:37.729Z,48.40
2022-09-16T13:08:07.704Z,48.88
2022-09-16T13:13:37.765Z,49.58
2022-09-16T13:16:07.649Z,49.28
2022-09-16T13:18:43.830Z,50.10
2022-09-16T13:21:25.045Z,49.55
2022-09-16T13:24:05.293Z,49.97
2022-09-16T13:26:41.043Z,49.65
2022-09-16T13:29:39.530Z,50.83
2022-09-16T13:32:25.343Z,52.13
2022-09-16T13:35:01.883Z,51.55
2022-09-16T13:37:30.160Z,55.65
2022-09-16T13:39:57.042Z,51.28
2022-09-16T13:42:26.074Z,50.15
2022-09-16T13:44:53.043Z,50.42
2022-09-16T13:47:31.876Z,49.75
2022-09-16T13:50:06.014Z,49.83
2022-09-16T13:52:35.914Z,50.38
2022-09-16T13:55:10.591Z,49.40
2022-09-16T13:57:58.994Z,48.60
2022-09-16T14:00:32.372Z,49.20
2022-09-16T14:03:29.581Z,50.75
2022-09-16T14:06:10.642Z,51.78
2022-09-16T14:08:52.128Z,49.97
2022-09-16T14:11:26.954Z,50.05
2022-09-16T14:16:47.022Z,47.85
2022-09-16T14:19:24.392Z,46.95
2022-09-16T14:22:06.751Z,46.53
2022-09-16T14:24:37.395Z,46.42
2022-09-16T14:27:05.430Z,46.17
2022-09-16T14:29:32.794Z,46.25
2022-09-16T14:32:00.028Z,46.33
2022-09-16T14:34:30.851Z,46.40
2022-09-16T14:36:58.271Z,46.25
2022-09-16T14:39:27.908Z,45.58
2022-09-16T14:41:59.087Z,45.85
2022-09-16T14:44:32.010Z,46.30
2022-09-16T14:47:09.065Z,46.47
2022-09-16T14:49:38.118Z,47.28
2022-09-16T14:52:05.112Z,51.22
2022-09-16T14:54:32.565Z,50.10
2022-09-16T14:57:04.163Z,48.75
2022-09-16T14:59:33.844Z,64.70
2022-09-16T15:02:05.708Z,63.13
2022-09-16T15:04:37.183Z,46.45
2022-09-16T15:07:11.949Z,46.22
2022-09-16T15:09:46.831Z,47.13
2022-09-16T15:12:23.453Z,46.03
2022-09-16T15:17:57.878Z,46.35
2022-09-16T15:23:37.367Z,45.72
2022-09-16T15:26:14.684Z,45.55
2022-09-16T15:28:54.922Z,45.30
2022-09-16T15:31:34.886Z,44.95
2022-09-16T15:34:04.867Z,45.25
2022-09-16T15:36:34.695Z,45.13
2022-09-16T15:39:01.807Z,44.55
2022-09-16T15:41:28.816Z,44.60
2022-09-16T15:43:59.394Z,44.88
2022-09-16T15:46:27.229Z,45.07
2022-09-16T15:48:56.286Z,45.63
2022-09-16T15:51:29.461Z,45.45
2022-09-16T15:53:59.921Z,46.97
2022-09-16T15:56:31.752Z,48.15
2022-09-16T15:59:03.946Z,51.38
2022-09-16T16:01:43.886Z,47.55
2022-09-16T16:04:13.419Z,48.53
2022-09-16T16:06:49.773Z,47.55
2022-09-16T16:09:41.480Z,46.92
2022-09-16T16:12:11.405Z,47.47
2022-09-16T16:14:40.904Z,46.83
2022-09-16T16:17:13.514Z,46.65
2022-09-16T16:19:41.799Z,45.83
2022-09-16T16:22:09.669Z,46.25
2022-09-16T16:24:37.040Z,46.95
2022-09-16T16:27:04.187Z,47.13
2022-09-16T16:29:31.013Z,46.83
2022-09-16T16:32:05.914Z,46.53
2022-09-16T16:34:33.667Z,45.33
2022-09-16T16:37:00.961Z,44.63
2022-09-16T16:39:28.015Z,44.92
2022-09-16T16:41:55.341Z,44.60
2022-09-16T16:44:23.222Z,44.78
2022-09-16T16:46:50.845Z,44.90
2022-09-16T16:49:19.456Z,44.97
2022-09-16T16:51:48.382Z,44.67
2022-09-16T16:54:15.493Z,44.35
2022-09-16T16:56:42.494Z,44.45
2022-09-16T16:59:09.694Z,44.25
2022-09-16T17:01:37.783Z,44.15
2022-09-16T17:16:29.250Z,45.35
2022-09-16T17:18:58.803Z,45.35
2022-09-16T17:24:27.976Z,45.40
2022-09-16T17:26:54.806Z,46.08
2022-09-16T17:38:34.026Z,46.92
2022-09-16T17:41:03.117Z,46.17
2022-09-16T17:43:32.505Z,46.33
2022-09-16T18:06:30.897Z,46.13
2022-09-16T18:36:27.424Z,44.80
2022-09-16T18:38:59.873Z,45.33
2022-09-16T19:48:31.844Z,44.92
2022-09-16T19:57:15.146Z,44.55
2022-09-16T19:59:49.431Z,45.57
2022-09-16T20:44:51.813Z,46.55
2022-09-16T21:07:51.914Z,43.55
2022-09-16T21:26:07.632Z,43.33
2022-09-16T21:28:34.685Z,43.58
2022-09-16T21:34:06.634Z,43.28
2022-09-16T22:07:54.075Z,43.15
2022-09-16T22:10:21.471Z,42.95
2022-09-16T22:12:48.340Z,42.97
2022-09-16T22:38:50.204Z,42.92
2022-09-16T22:41:17.720Z,42.97
2022-09-16T22:43:46.558Z,43.25
2022-09-16T22:46:15.566Z,43.13
2022-09-16T22:57:52.779Z,43.30
2022-09-16T23:06:34.800Z,43.25
2022-09-16T23:09:02.607Z,43.15
2022-09-16T23:11:31.359Z,43.13
2022-09-16T23:31:39.608Z,44.03
2022-09-16T23:52:34.482Z,42.53
